Time;durP1;ratioP1;P1;durP2;ratioP2;P2;SDS_P1;SDS_P2;PMS_P1;PMS_P2;Temp;Humidity;BMP_temperature;BMP_pressure;BME280_temperature;BME280_humidity;BME280_pressure;Samples;Min_cycle;Max_cycle;Signal;HPM_P1;HPM_P2
2023/05/15 00:00:45;;;;;;;;;29.25;27.25;;;;;16.45;63.89;101310.78;4853112;29;75149;-63
2023/05/15 00:03:31;;;;;;;;;;;;;;;;;;;;;
2023/05/15 00:06:57;;;;;;;;;;;;;;;;;;;;;
2023/05/15 00:15:50;;;;;;;;;;;;;;;;;;;;;
2023/05/15 00:22:18;;;;;;;;;;;;;;;;;;;;;
2023/05/15 00:24:59;;;;;;;;;;;;;;;;;;;;;
2023/05/15 00:28:00;;;;;;;;;35.00;34.00;;;;;15.95;64.84;101265.56;4860358;29;74344;-63
2023/05/15 00:30:58;;;;;;;;;;;;;;;;;;;;;
2023/05/15 00:33:39;;;;;;;;;;;;;;;;;;;;;
2023/05/15 00:36:40;;;;;;;;;;;;;;;;;;;;;
2023/05/15 00:39:17;;;;;;;;;42.25;37.00;;;;;15.84;65.58;101268.78;4853415;29;74021;-63
2023/05/15 00:42:12;;;;;;;;;;;;;;;;;;;;;
2023/05/15 00:48:15;;;;;;;;;;;;;;;;;;;;;
2023/05/15 00:51:21;;;;;;;;;;;;;;;;;;;;;
2023/05/15 00:54:29;;;;;;;;;;;;;;;;;;;;;
2023/05/15 00:57:17;;;;;;;;;40.25;35.75;;;;;15.86;66.07;101280.34;4864377;29;72722;-63
2023/05/15 01:00:19;;;;;;;;;;;;;;;;;;;;;
2023/05/15 01:05:47;;;;;;;;;43.00;37.00;;;;;15.69;66.45;101256.84;4858293;29;45304;-63
2023/05/15 01:08:41;;;;;;;;;41.50;35.50;;;;;15.65;66.74;101257.97;4856322;29;45942;-63
2023/05/15 01:11:45;;;;;;;;;44.00;35.00;;;;;15.53;66.47;101256.66;4863677;29;48275;-63
2023/05/15 01:14:44;;;;;;;;;;;;;;;;;;;;;
2023/05/15 01:17:14;;;;;;;;;45.75;37.50;;;;;15.43;66.76;101249.94;4867609;29;69322;-63
2023/05/15 01:20:04;;;;;;;;;37.75;33.00;;;;;15.21;67.07;101224.97;4867141;29;45479;-63
2023/05/15 01:22:55;;;;;;;;;;;;;;;;;;;;;
2023/05/15 01:25:55;;;;;;;;;39.75;35.75;;;;;15.51;67.31;101277.38;4865150;29;71840;-63
2023/05/15 01:29:01;;;;;;;;;44.50;38.50;;;;;15.22;67.62;101246.41;4865601;29;45614;-63
2023/05/15 01:31:56;;;;;;;;;;;;;;;;;;;;;
2023/05/15 01:34:59;;;;;;;;;39.75;34.25;;;;;15.42;67.66;101271.53;4864001;29;74019;-63
2023/05/15 01:37:50;;;;;;;;;;;;;;;;;;;;;
2023/05/15 01:40:59;;;;;;;;;;;;;;;;;;;;;
2023/05/15 01:43:56;;;;;;;;;;;;;;;;;;;;;
2023/05/15 01:50:08;;;;;;;;;43.00;36.00;;;;;15.17;68.30;101248.44;4858252;29;45856;-63
2023/05/15 01:53:00;;;;;;;;;;;;;;;;;;;;;
2023/05/15 01:55:29;;;;;;;;;41.00;35.75;;;;;15.14;68.49;101246.72;4856768;29;72962;-63
2023/05/15 01:58:10;;;;;;;;;;;;;;;;;;;;;
2023/05/15 02:04:06;;;;;;;;;49.50;41.25;;;;;15.30;68.21;101286.41;4865281;29;45507;-63
2023/05/15 02:07:03;;;;;;;;;;;;;;;;;;;;;
2023/05/15 02:09:43;;;;;;;;;;;;;;;;;;;;;
2023/05/15 02:12:23;;;;;;;;;47.75;40.50;;;;;15.15;67.95;101259.25;4861893;29;71722;-63
2023/05/15 02:15:02;;;;;;;;;;;;;;;;;;;;;
2023/05/15 02:18:01;;;;;;;;;;;;;;;;;;;;;
2023/05/15 02:21:03;;;;;;;;;50.50;39.75;;;;;15.19;68.31;101277.00;4864945;29;75796;-63
2023/05/15 02:24:09;;;;;;;;;53.75;43.50;;;;;15.10;67.83;101261.28;4863610;29;45378;-63
2023/05/15 02:27:11;;;;;;;;;;;;;;;;;;;;;
2023/05/15 02:30:30;;;;;;;;;;;;;;;;;;;;;
2023/05/15 02:33:27;;;;;;;;;;;;;;;;;;;;;
2023/05/15 02:36:16;;;;;;;;;;;;;;;;;;;;;
2023/05/15 02:39:29;;;;;;;;;;;;;;;;;;;;;
2023/05/15 02:42:14;;;;;;;;;51.75;41.75;;;;;14.73;67.74;101238.63;4849241;29;71713;-63
2023/05/15 02:44:44;;;;;;;;;50.75;42.50;;;;;14.86;68.12;101262.31;4865636;29;45651;-63
2023/05/15 02:47:26;;;;;;;;;;;;;;;;;;;;;
2023/05/15 02:50:05;;;;;;;;;47.50;39.25;;;;;14.69;68.07;101233.47;4863333;29;68793;-63
2023/05/15 02:53:08;;;;;;;;;47.00;38.00;;;;;14.72;68.33;101252.13;4862903;29;45351;-63
2023/05/15 02:56:07;;;;;;;;;;;;;;;;;;;;;
2023/05/15 02:58:45;;;;;;;;;;;;;;;;;;;;;
2023/05/15 03:01:34;;;;;;;;;;;;;;;;;;;;;
2023/05/15 03:04:15;;;;;;;;;;;;;;;;;;;;;
2023/05/15 03:07:33;;;;;;;;;;;;;;;;;;;;;
2023/05/15 03:10:01;;;;;;;;;46.25;39.00;;;;;14.66;67.85;101249.69;4863192;29;71342;-63
2023/05/15 03:12:56;;;;;;;;;;;;;;;;;;;;;
2023/05/15 03:15:35;;;;;;;;;;;;;;;;;;;;;
2023/05/15 03:18:27;;;;;;;;;40.25;35.25;;;;;14.54;68.08;101245.69;4864499;29;74035;-63
2023/05/15 03:21:26;;;;;;;;;;;;;;;;;;;;;
2023/05/15 03:24:19;;;;;;;;;46.75;37.00;;;;;14.56;68.10;101250.03;4851138;29;67407;-63
2023/05/15 03:27:03;;;;;;;;;;;;;;;;;;;;;
2023/05/15 03:32:58;;;;;;;;;;;;;;;;;;;;;
2023/05/15 03:35:56;;;;;;;;;;;;;;;;;;;;;
2023/05/15 03:38:40;;;;;;;;;;;;;;;;;;;;;
2023/05/15 03:41:12;;;;;;;;;49.75;41.75;;;;;14.46;68.20;101260.28;4863323;29;73968;-63
2023/05/15 03:43:42;;;;;;;;;43.25;37.75;;;;;14.36;68.18;101248.16;4863540;29;45340;-63
2023/05/15 03:46:38;;;;;;;;;46.00;36.00;;;;;14.11;68.18;101215.16;4865172;29;45502;-63
2023/05/15 03:49:28;;;;;;;;;48.50;40.00;;;;;13.89;68.31;101183.81;4863834;29;46367;-63
2023/05/15 03:52:07;;;;;;;;;;;;;;;;;;;;;
2023/05/15 03:54:51;;;;;;;;;42.50;37.00;;;;;14.19;68.40;101242.59;4860357;29;73085;-63
2023/05/15 03:57:47;;;;;;;;;;;;;;;;;;;;;
2023/05/15 04:00:43;;;;;;;;;;;;;;;;;;;;;
2023/05/15 04:03:22;;;;;;;;;;;;;;;;;;;;;
2023/05/15 04:09:46;;;;;;;;;;;;;;;;;;;;;
2023/05/15 04:12:52;;;;;;;;;;;;;;;;;;;;;
2023/05/15 04:16:19;;;;;;;;;44.00;36.50;;;;;13.72;68.61;101213.97;4861807;29;74233;-63
2023/05/15 04:19:23;;;;;;;;;;;;;;;;;;;;;
2023/05/15 04:22:14;;;;;;;;;;;;;;;;;;;;;
2023/05/15 04:25:07;;;;;;;;;;;;;;;;;;;;;
2023/05/15 04:28:32;;;;;;;;;;;;;;;;;;;;;
2023/05/15 04:31:19;;;;;;;;;44.00;34.75;;;;;13.73;68.40;101239.84;4850860;29;45617;-63
2023/05/15 04:34:03;;;;;;;;;40.75;35.00;;;;;13.86;68.26;101267.97;4857911;29;45501;-63
2023/05/15 04:36:56;;;;;;;;;46.25;36.00;;;;;13.56;68.30;101231.56;4859882;29;45276;-63
2023/05/15 04:39:39;;;;;;;;;;;;;;;;;;;;;
2023/05/15 04:42:38;;;;;;;;;;;;;;;;;;;;;
2023/05/15 04:45:24;;;;;;;;;;;;;;;;;;;;;
2023/05/15 04:48:20;;;;;;;;;;;;;;;;;;;;;
2023/05/15 04:54:14;;;;;;;;;;;;;;;;;;;;;
2023/05/15 04:56:53;;;;;;;;;;;;;;;;;;;;;
2023/05/15 04:59:29;;;;;;;;;;;;;;;;;;;;;
2023/05/15 05:02:25;;;;;;;;;;;;;;;;;;;;;
2023/05/15 05:05:08;;;;;;;;;;;;;;;;;;;;;
2023/05/15 05:07:56;;;;;;;;;;;;;;;;;;;;;
2023/05/15 05:11:02;;;;;;;;;42.75;37.25;;;;;13.69;69.14;101246.28;4858684;29;71626;-63
2023/05/15 05:13:49;;;;;;;;;;;;;;;;;;;;;
2023/05/15 05:16:36;;;;;;;;;40.75;34.75;;;;;13.64;68.86;101230.34;4863970;29;73063;-63
2023/05/15 05:19:33;;;;;;;;;;;;;;;;;;;;;
2023/05/15 05:22:49;;;;;;;;;;;;;;;;;;;;;
2023/05/15 05:25:34;;;;;;;;;;;;;;;;;;;;;
2023/05/15 05:28:12;;;;;;;;;42.25;36.50;;;;;13.69;68.97;101235.53;4856843;29;71154;-63
2023/05/15 05:31:18;;;;;;;;;43.00;36.50;;;;;13.61;69.09;101219.72;4863744;29;45585;-63
2023/05/15 05:34:04;;;;;;;;;;;;;;;;;;;;;
2023/05/15 05:37:01;;;;;;;;;42.50;35.25;;;;;13.57;69.25;101212.75;4861032;29;75151;-63
2023/05/15 05:43:02;;;;;;;;;45.25;35.50;;;;;13.68;69.37;101252.56;4862301;29;45491;-63
2023/05/15 05:45:40;;;;;;;;;39.50;33.00;;;;;13.75;69.30;101261.25;4859547;29;45587;-63
2023/05/15 05:51:47;;;;;;;;;;;;;;;;;;;;;
2023/05/15 05:54:19;;;;;;;;;46.75;37.00;;;;;13.76;69.75;101268.38;4864035;29;67964;-63
2023/05/15 05:57:14;;;;;;;;;44.75;37.50;;;;;13.78;69.53;101258.47;4865077;29;45554;-63
2023/05/15 06:00:10;;;;;;;;;;;;;;;;;;;;;
2023/05/15 06:02:54;;;;;;;;;;;;;;;;;;;;;
2023/05/15 06:05:33;;;;;;;;;;;;;;;;;;;;;
2023/05/15 06:09:02;;;;;;;;;45.75;36.50;;;;;13.42;70.63;101218.69;4861839;29;73137;-63
2023/05/15 06:12:06;;;;;;;;;41.25;35.75;;;;;13.36;70.72;101209.03;4861362;29;47296;-63
2023/05/15 06:32:34;;;;;;;;;;;;;;;;;;;;;
2023/05/15 07:35:20;;;;;;;;;43.25;35.00;;;;;14.40;72.54;101265.91;4835794;29;45877;-65
2023/05/15 07:45:33;;;;;;;;;;;;;;;;;;;;;
2023/05/15 08:06:12;;;;;;;;;30.25;28.75;;;;;14.29;72.70;101225.19;4791338;29;45506;-65
2023/05/15 08:08:38;;;;;;;;;36.25;30.75;;;;;14.46;72.86;101246.84;4845942;29;46340;-60
2023/05/15 08:11:03;;;;;;;;;34.75;31.25;;;;;14.44;72.92;101245.16;4879944;29;47568;-61
2023/05/15 08:13:28;;;;;;;;;39.25;32.75;;;;;14.48;73.10;101254.84;4884328;29;45429;-60
2023/05/15 08:15:54;;;;;;;;;35.25;33.00;;;;;14.60;73.38;101267.81;4886317;29;45523;-61
2023/05/15 08:18:19;;;;;;;;;35.00;30.50;;;;;14.55;73.46;101250.09;4878196;29;45562;-62
2023/05/15 08:20:45;;;;;;;;;28.00;23.50;;;;;14.64;73.36;101273.94;4882092;29;46112;-61
2023/05/15 08:23:10;;;;;;;;;41.00;33.25;;;;;14.54;73.14;101251.03;4881471;29;45367;-62
2023/05/15 08:25:36;;;;;;;;;38.75;32.25;;;;;14.57;73.26;101245.56;4881822;29;45512;-61
2023/05/15 08:28:03;;;;;;;;;36.75;31.00;;;;;14.70;73.52;101264.75;4883602;29;45433;-61
2023/05/15 08:30:28;;;;;;;;;31.75;30.75;;;;;14.53;73.30;101242.09;4874076;29;46300;-62
2023/05/15 08:32:56;;;;;;;;;42.00;33.25;;;;;14.62;74.03;101248.97;4878317;29;45402;-61
2023/05/15 08:35:22;;;;;;;;;34.50;29.00;;;;;14.57;73.85;101246.41;4880405;29;45585;-61
2023/05/15 08:37:47;;;;;;;;;41.00;34.25;;;;;14.76;74.17;101268.06;4878920;29;45493;-62
2023/05/15 08:40:13;;;;;;;;;35.50;31.25;;;;;14.67;73.82;101246.94;4874624;29;45410;-62
2023/05/15 08:42:44;;;;;;;;;35.75;31.25;;;;;14.67;73.86;101238.00;4882878;29;45340;-62
2023/05/15 08:45:11;;;;;;;;;43.75;34.25;;;;;14.68;74.20;101232.56;4878619;29;45483;-62
2023/05/15 08:47:39;;;;;;;;;37.00;30.00;;;;;14.67;73.91;101220.09;4879531;29;45389;-62
2023/05/15 08:50:14;;;;;;;;;39.50;33.50;;;;;14.79;73.96;101227.63;4878128;29;45533;-62
2023/05/15 08:52:46;;;;;;;;;38.00;31.50;;;;;14.85;74.21;101237.25;4880757;29;45502;-62
2023/05/15 08:55:15;;;;;;;;;37.75;33.50;;;;;14.84;73.87;101235.50;4880843;29;45442;-62
2023/05/15 08:57:42;;;;;;;;;40.00;31.25;;;;;14.76;73.90;101208.94;4879565;29;45424;-62
2023/05/15 09:00:10;;;;;;;;;45.75;34.00;;;;;14.92;73.94;101235.19;4875082;29;45688;-62
2023/05/15 09:02:37;;;;;;;;;35.50;32.50;;;;;14.96;74.23;101240.31;4885826;29;45941;-61
2023/05/15 09:05:06;;;;;;;;;51.75;40.25;;;;;14.92;74.13;101213.66;4881086;29;45459;-62
2023/05/15 09:07:32;;;;;;;;;46.00;34.25;;;;;15.14;73.91;101256.63;4882455;29;45493;-62
2023/05/15 09:10:00;;;;;;;;;41.75;35.25;;;;;15.02;74.13;101231.16;4881797;29;45668;-62
2023/05/15 09:12:26;;;;;;;;;47.25;35.75;;;;;14.93;74.13;101210.03;4882345;29;45427;-62
2023/05/15 09:15:06;;;;;;;;;40.00;33.25;;;;;14.90;74.33;101212.84;4896983;29;46452;-62
2023/05/15 09:17:32;;;;;;;;;36.75;31.75;;;;;15.07;74.26;101237.19;4882698;29;45789;-62
2023/05/15 09:19:57;;;;;;;;;44.00;34.50;;;;;14.99;74.23;101207.09;4882168;29;46808;-62
2023/05/15 09:22:24;;;;;;;;;41.25;34.75;;;;;14.94;73.87;101201.03;4882154;29;45461;-62
2023/05/15 09:24:51;;;;;;;;;48.00;38.25;;;;;15.15;73.75;101237.75;4883270;29;45879;-62
2023/05/15 09:27:18;;;;;;;;;48.25;38.00;;;;;15.23;73.64;101250.84;4881828;29;45817;-62
2023/05/15 09:29:44;;;;;;;;;46.50;35.25;;;;;15.28;74.18;101238.06;4881744;29;46604;-62
2023/05/15 09:32:12;;;;;;;;;41.50;35.00;;;;;15.41;73.78;101245.59;4881884;29;45565;-62
2023/05/15 09:34:40;;;;;;;;;47.50;36.25;;;;;15.28;73.78;101215.69;4900038;28;45886;-61
2023/05/15 09:37:08;;;;;;;;;47.25;37.25;;;;;15.32;73.78;101220.84;4881664;29;45565;-62
2023/05/15 09:39:42;;;;;;;;;50.00;36.75;;;;;15.33;73.51;101214.50;4891564;28;47745;-62
2023/05/15 09:42:11;;;;;;;;;46.50;36.00;;;;;15.51;73.82;101237.03;4875326;29;45921;-63
2023/05/15 09:44:41;;;;;;;;;39.50;34.00;;;;;15.56;73.82;101243.06;4883460;29;45395;-62
2023/05/15 09:47:10;;;;;;;;;48.75;36.50;;;;;15.47;73.75;101215.72;4881404;29;45400;-62
2023/05/15 09:49:36;;;;;;;;;41.25;35.00;;;;;15.48;73.44;101217.47;4897738;29;47221;-62
2023/05/15 09:52:06;;;;;;;;;43.50;36.50;;;;;15.52;73.08;101211.88;4880534;29;46066;-62
2023/05/15 09:54:31;;;;;;;;;46.50;37.00;;;;;15.62;73.00;101227.59;4895406;28;45944;-63
2023/05/15 09:57:09;;;;;;;;;46.75;36.50;;;;;15.69;73.19;101246.09;4882361;29;45426;-62
2023/05/15 09:59:34;;;;;;;;;45.25;37.50;;;;;15.64;73.24;101236.50;4879395;29;45878;-63
2023/05/15 10:02:00;;;;;;;;;45.25;37.00;;;;;15.68;72.91;101244.34;4884095;29;45601;-64
2023/05/15 10:04:25;;;;;;;;;45.00;36.75;;;;;15.63;72.86;101232.91;4880059;29;45568;-62
2023/05/15 10:06:52;;;;;;;;;45.25;36.75;;;;;15.53;72.79;101205.53;4883683;29;45463;-62
2023/05/15 10:09:17;;;;;;;;;44.50;37.25;;;;;15.71;72.79;101232.56;4878009;29;46650;-61
2023/05/15 10:11:46;;;;;;;;;36.00;32.50;;;;;15.73;73.07;101234.22;4879845;29;45709;-62
2023/05/15 10:14:12;;;;;;;;;42.50;36.75;;;;;15.80;72.71;101242.94;4881289;29;45807;-62
2023/05/15 10:16:39;;;;;;;;;46.75;36.00;;;;;15.71;72.65;101224.50;4882072;29;45755;-62
2023/05/15 10:19:09;;;;;;;;;38.00;32.25;;;;;15.88;72.73;101251.53;4881760;29;45442;-62
2023/05/15 10:21:37;;;;;;;;;45.00;35.75;;;;;15.93;72.46;101259.41;4883723;29;45605;-62
2023/05/15 10:24:03;;;;;;;;;42.25;37.00;;;;;15.83;72.83;101232.03;4883275;29;45458;-62
2023/05/15 10:26:39;;;;;;;;;37.00;32.25;;;;;15.86;72.79;101231.88;4883785;29;45311;-62
2023/05/15 10:29:07;;;;;;;;;42.00;35.75;;;;;16.02;72.46;101260.78;4883000;29;47005;-61
2023/05/15 10:31:34;;;;;;;;;47.25;38.25;;;;;15.95;72.51;101245.84;4882131;29;45819;-62
2023/05/15 10:34:00;;;;;;;;;46.00;37.75;;;;;15.78;72.64;101214.34;4874887;29;45857;-61
2023/05/15 10:40:00;;;;;;;;;48.25;38.50;;;;;15.76;72.77;101206.34;4861399;29;46499;-61
2023/05/15 10:42:28;;;;;;;;;43.75;36.00;;;;;16.08;72.86;101247.88;4884377;29;46069;-61
2023/05/15 10:44:58;;;;;;;;;47.50;36.50;;;;;15.93;72.81;101221.69;4887469;28;45594;-62
2023/05/15 10:47:25;;;;;;;;;49.25;39.00;;;;;15.98;72.84;101218.78;4878115;29;46026;-61
2023/05/15 10:49:50;;;;;;;;;43.25;36.00;;;;;15.92;72.93;101196.59;4878064;29;47616;-62
2023/05/15 10:52:16;;;;;;;;;45.50;39.00;;;;;16.22;72.35;101246.38;4877874;29;45708;-61
2023/05/15 10:54:41;;;;;;;;;46.25;38.00;;;;;16.25;72.38;101240.84;4880836;29;45720;-61
2023/05/15 10:57:07;;;;;;;;;46.75;38.25;;;;;16.30;72.24;101244.19;4878798;29;45756;-62
2023/05/15 10:59:35;;;;;;;;;45.25;38.25;;;;;16.32;72.04;101242.28;4897690;28;47953;-61
2023/05/15 11:02:24;;;;;;;;;45.25;35.50;;;;;16.24;71.78;101223.81;4886847;29;45488;-61
2023/05/15 11:04:56;;;;;;;;;37.75;34.50;;;;;16.33;71.98;101230.56;4882926;29;45804;-62
2023/05/15 11:07:23;;;;;;;;;45.25;36.50;;;;;16.25;71.19;101214.75;4880799;29;46322;-61
2023/05/15 11:09:49;;;;;;;;;43.50;35.00;;;;;16.33;71.37;101218.91;4887426;29;47639;-62
2023/05/15 11:12:15;;;;;;;;;44.50;36.00;;;;;16.48;71.42;101237.88;4882625;29;46258;-61
2023/05/15 11:15:01;;;;;;;;;45.50;36.25;;;;;16.28;71.69;101205.66;4883812;29;45527;-61
2023/05/15 11:17:31;;;;;;;;;42.25;35.25;;;;;16.41;71.19;101216.72;4877859;29;45689;-62
2023/05/15 11:19:57;;;;;;;;;46.75;38.00;;;;;16.57;71.42;101235.69;4895459;28;47201;-62
2023/05/15 11:22:29;;;;;;;;;37.25;32.75;;;;;16.36;71.14;101203.47;4864809;29;45356;-62
2023/05/15 11:25:05;;;;;;;;;42.75;36.25;;;;;16.64;71.12;101250.63;4894330;28;45388;-62
2023/05/15 11:27:41;;;;;;;;;46.50;37.50;;;;;16.51;70.85;101226.09;4882136;29;45558;-61
2023/05/15 11:30:21;;;;;;;;;47.75;38.75;;;;;16.71;70.96;101245.81;4878296;29;45636;-61
2023/05/15 11:32:46;;;;;;;;;42.25;37.25;;;;;16.72;70.67;101243.00;4881191;29;46241;-61
2023/05/15 11:35:20;;;;;;;;;43.00;36.00;;;;;16.57;71.06;101219.53;4884556;29;45402;-62
2023/05/15 11:37:52;;;;;;;;;44.75;37.00;;;;;16.76;70.81;101249.13;4882514;29;45331;-61
2023/05/15 11:40:25;;;;;;;;;42.75;35.25;;;;;16.57;70.52;101217.72;4882860;29;46036;-62
2023/05/15 11:43:04;;;;;;;;;44.25;35.75;;;;;16.66;70.98;101233.41;4882608;29;45778;-62
2023/05/15 11:45:35;;;;;;;;;45.25;36.00;;;;;16.78;71.16;101248.09;4883143;29;45467;-62
2023/05/15 11:48:02;;;;;;;;;41.00;34.25;;;;;16.71;70.57;101221.53;4878936;29;45590;-62
2023/05/15 11:50:31;;;;;;;;;44.75;35.75;;;;;16.61;70.46;101211.22;4880563;29;45652;-61
2023/05/15 11:52:57;;;;;;;;;42.00;33.50;;;;;16.69;70.49;101221.63;4881006;29;45427;-62
2023/05/15 11:55:24;;;;;;;;;39.25;34.75;;;;;16.75;70.96;101212.34;4882743;29;45503;-61
2023/05/15 11:57:49;;;;;;;;;40.75;35.00;;;;;16.80;70.50;101216.53;4882965;29;45323;-62
2023/05/15 12:00:15;;;;;;;;;36.00;30.75;;;;;16.72;70.60;101196.31;4879049;29;46735;-62
2023/05/15 12:02:41;;;;;;;;;42.50;34.75;;;;;16.83;70.72;101210.13;4887623;29;46179;-62
2023/05/15 12:05:08;;;;;;;;;36.50;33.00;;;;;16.80;70.49;101194.97;4882156;29;45494;-62
2023/05/15 12:07:51;;;;;;;;;35.50;30.75;;;;;16.66;70.13;101181.34;4880723;29;45459;-62
2023/05/15 12:10:17;;;;;;;;;35.25;30.50;;;;;16.81;70.59;101202.09;4878030;29;46243;-62
2023/05/15 12:12:47;;;;;;;;;35.50;31.75;;;;;17.00;70.86;101230.84;4876666;29;45800;-61
2023/05/15 12:15:14;;;;;;;;;35.25;30.25;;;;;16.88;71.58;101216.19;4880215;29;45410;-61
2023/05/15 12:17:40;;;;;;;;;30.00;29.00;;;;;16.87;72.43;101221.66;4883194;29;45497;-61
2023/05/15 12:20:08;;;;;;;;;34.00;30.00;;;;;16.81;72.79;101215.59;4881815;29;45578;-61
2023/05/15 12:22:43;;;;;;;;;41.75;34.75;;;;;16.81;73.46;101215.59;4882961;29;45752;-62
2023/05/15 12:25:10;;;;;;;;;38.75;33.25;;;;;16.92;74.05;101231.25;4872318;29;45426;-61
2023/05/15 12:27:38;;;;;;;;;30.25;30.00;;;;;16.90;73.97;101226.91;4875863;29;45619;-62
2023/05/15 12:30:05;;;;;;;;;39.00;33.50;;;;;16.88;74.08;101220.72;4881472;29;46159;-61
2023/05/15 12:32:33;;;;;;;;;44.00;34.75;;;;;16.82;74.54;101214.66;4879800;29;45960;-61
2023/05/15 12:35:00;;;;;;;;;39.00;33.00;;;;;16.91;75.19;101224.13;4878010;29;45526;-61
2023/05/15 12:37:28;;;;;;;;;38.00;33.25;;;;;16.77;75.09;101199.66;4877722;29;45467;-61
2023/05/15 12:39:58;;;;;;;;;36.00;32.00;;;;;16.90;74.94;101227.75;4892300;29;48090;-61
2023/05/15 12:42:25;;;;;;;;;38.75;32.50;;;;;16.97;74.71;101233.72;4878904;29;46010;-61
2023/05/15 12:44:52;;;;;;;;;31.50;28.50;;;;;16.88;74.67;101213.50;4880366;29;45566;-61
2023/05/15 12:47:25;;;;;;;;;37.25;33.50;;;;;16.97;74.93;101222.91;4882089;29;45534;-61
2023/05/15 12:49:57;;;;;;;;;33.75;31.75;;;;;16.91;74.03;101220.56;4879641;29;45616;-61
2023/05/15 12:52:23;;;;;;;;;34.75;32.00;;;;;16.80;74.61;101205.75;4893578;28;45613;-61
2023/05/15 12:54:49;;;;;;;;;35.50;31.75;;;;;16.84;74.73;101211.88;4888575;29;45615;-61
2023/05/15 12:57:15;;;;;;;;;32.50;29.75;;;;;16.92;75.29;101225.84;4883997;29;45883;-61
2023/05/15 12:59:40;;;;;;;;;39.25;32.50;;;;;16.65;75.09;101193.91;4884431;29;46366;-61
2023/05/15 13:02:12;;;;;;;;;22.00;19.50;;;;;16.77;75.83;101230.19;4885206;29;45507;-61
2023/05/15 13:04:38;;;;;;;;;38.50;33.00;;;;;16.81;75.63;101217.44;4890328;29;45885;-61
2023/05/15 13:07:05;;;;;;;;;35.00;31.75;;;;;16.64;76.01;101211.06;4885405;29;45739;-61
2023/05/15 13:09:32;;;;;;;;;39.50;32.50;;;;;16.78;76.95;101236.44;4903751;28;47165;-61
2023/05/15 13:12:00;;;;;;;;;36.50;31.25;;;;;16.80;76.16;101232.72;4885198;29;45555;-61
2023/05/15 13:14:31;;;;;;;;;36.25;30.50;;;;;16.73;76.43;101214.25;4885268;29;45473;-61
2023/05/15 13:16:59;;;;;;;;;38.25;32.50;;;;;16.76;76.44;101206.00;4887725;29;45921;-61
2023/05/15 13:19:28;;;;;;;;;40.50;35.25;;;;;16.76;76.80;101200.63;4885478;28;45672;-61
2023/05/15 13:21:53;;;;;;;;;29.25;26.50;;;;;16.79;76.92;101217.50;4884120;29;45768;-61
2023/05/15 13:24:19;;;;;;;;;27.25;23.50;;;;;16.80;76.45;101204.88;4887194;29;45553;-62
2023/05/15 13:26:44;;;;;;;;;30.25;28.25;;;;;16.73;76.57;101184.59;4883564;29;45799;-61
2023/05/15 13:29:15;;;;;;;;;25.75;23.50;;;;;16.88;75.82;101208.09;4881227;29;47802;-61
2023/05/15 13:31:42;;;;;;;;;22.75;21.00;;;;;16.91;75.32;101223.25;4884667;29;45874;-62
2023/05/15 13:34:07;;;;;;;;;21.00;20.50;;;;;16.89;75.55;101215.25;4881284;29;45372;-62
2023/05/15 13:36:40;;;;;;;;;20.25;19.00;;;;;17.08;75.47;101241.25;4886688;29;45530;-62
2023/05/15 13:39:06;;;;;;;;;24.00;21.75;;;;;16.90;74.87;101203.50;4890191;29;47916;-61
2023/05/15 13:41:32;;;;;;;;;18.25;16.00;;;;;17.06;73.51;101237.75;4892148;28;45387;-62
2023/05/15 13:44:02;;;;;;;;;15.25;15.25;;;;;16.98;73.93;101224.69;4887319;29;45526;-62
2023/05/15 13:46:28;;;;;;;;;14.00;13.00;;;;;17.09;72.62;101234.91;4884391;29;45729;-62
2023/05/15 13:48:53;;;;;;;;;13.25;13.25;;;;;16.96;71.40;101224.75;4883873;29;45308;-62
2023/05/15 13:51:23;;;;;;;;;14.00;14.00;;;;;16.82;71.66;101194.88;4882151;29;45291;-62
2023/05/15 13:53:48;;;;;;;;;17.00;14.75;;;;;17.09;71.08;101235.78;4882896;29;45483;-62
2023/05/15 13:56:15;;;;;;;;;16.75;14.75;;;;;16.87;70.97;101203.63;4883247;29;45634;-62
2023/05/15 13:58:41;;;;;;;;;15.00;15.00;;;;;17.05;70.64;101234.19;4883392;29;46341;-62
2023/05/15 14:01:09;;;;;;;;;21.25;16.00;;;;;16.94;70.48;101218.56;4883267;29;45488;-61
2023/05/15 14:03:34;;;;;;;;;13.50;12.50;;;;;16.96;69.58;101227.44;4880709;29;45341;-62
2023/05/15 14:05:59;;;;;;;;;14.75;14.75;;;;;16.94;69.43;101223.97;4882672;29;45546;-61
2023/05/15 14:08:27;;;;;;;;;16.25;15.00;;;;;17.04;69.47;101246.81;4890206;28;48203;-62
2023/05/15 14:10:53;;;;;;;;;19.75;18.00;;;;;16.92;69.53;101217.75;4881035;29;45480;-61
2023/05/15 14:13:18;;;;;;;;;14.00;13.75;;;;;16.89;69.01;101214.34;4882532;29;45797;-61
2023/05/15 14:15:43;;;;;;;;;15.75;14.00;;;;;16.94;69.35;101215.88;4884299;29;45589;-61
2023/05/15 14:18:14;;;;;;;;;11.00;11.00;;;;;16.84;69.16;101196.59;4883838;29;46285;-62
2023/05/15 14:20:39;;;;;;;;;17.00;14.50;;;;;17.08;69.21;101233.16;4877899;29;45438;-61
2023/05/15 14:23:04;;;;;;;;;15.75;13.25;;;;;17.00;70.09;101214.69;4883164;29;45287;-61
2023/05/15 14:25:30;;;;;;;;;12.25;12.00;;;;;17.10;69.18;101229.41;4883139;29;45544;-62
2023/05/15 14:28:03;;;;;;;;;14.00;12.50;;;;;16.98;70.37;101205.81;4898117;29;48163;-62
2023/05/15 14:30:28;;;;;;;;;15.00;13.50;;;;;17.15;69.77;101234.59;4880454;29;45828;-61
2023/05/15 14:32:54;;;;;;;;;14.00;12.75;;;;;17.09;69.66;101218.72;4881339;29;45426;-61
2023/05/15 14:35:21;;;;;;;;;14.00;14.00;;;;;16.90;70.11;101203.50;4897278;28;45614;-61
2023/05/15 14:37:47;;;;;;;;;14.50;14.00;;;;;16.99;71.00;101219.22;4880742;29;47161;-61
2023/05/15 14:40:12;;;;;;;;;13.00;11.00;;;;;17.01;70.86;101216.44;4881351;29;45807;-61
2023/05/15 14:42:39;;;;;;;;;15.00;15.00;;;;;17.16;71.25;101236.34;4880003;29;46700;-61
2023/05/15 14:45:05;;;;;;;;;7.75;7.50;;;;;17.04;71.29;101225.22;4889275;29;45565;-61
2023/05/15 14:47:30;;;;;;;;;16.25;14.00;;;;;17.06;71.09;101221.56;4884285;28;46198;-61
2023/05/15 14:49:56;;;;;;;;;17.00;15.50;;;;;17.20;70.80;101240.63;4886705;29;45505;-61
2023/05/15 14:52:21;;;;;;;;;18.75;16.50;;;;;17.25;71.65;101249.34;4883143;29;45524;-61
2023/05/15 14:54:47;;;;;;;;;20.00;17.00;;;;;17.01;71.57;101211.91;4878142;29;45248;-61
2023/05/15 14:57:15;;;;;;;;;20.00;19.25;;;;;17.17;72.39;101246.16;4881217;29;46167;-61
2023/05/15 14:59:40;;;;;;;;;20.75;18.25;;;;;16.96;71.97;101218.50;4881881;29;45827;-61
2023/05/15 15:02:05;;;;;;;;;24.00;22.75;;;;;16.93;73.33;101224.91;4885298;29;45448;-61
2023/05/15 15:04:33;;;;;;;;;14.25;13.75;;;;;16.99;72.67;101243.47;4882997;28;45479;-61
2023/05/15 15:07:01;;;;;;;;;14.75;13.50;;;;;16.91;73.27;101231.34;4886036;29;45397;-61
2023/05/15 15:09:27;;;;;;;;;14.00;14.00;;;;;17.12;73.84;101276.06;4880798;29;45650;-61
2023/05/15 15:11:55;;;;;;;;;16.00;15.50;;;;;17.11;74.09;101265.38;4881524;29;45411;-61
2023/05/15 15:14:20;;;;;;;;;14.50;13.25;;;;;16.89;74.28;101247.59;4882075;29;45445;-61
2023/05/15 15:16:46;;;;;;;;;12.75;12.50;;;;;16.72;74.23;101213.34;4882507;29;46494;-61
2023/05/15 15:19:12;;;;;;;;;9.50;9.50;;;;;16.84;73.63;101230.75;4881517;29;45575;-61
2023/05/15 15:21:40;;;;;;;;;10.75;10.00;;;;;16.91;73.58;101250.22;4882844;29;45609;-61
2023/05/15 15:24:06;;;;;;;;;11.75;10.75;;;;;16.65;73.65;101210.09;4880520;29;45513;-61
2023/05/15 15:26:32;;;;;;;;;16.50;16.00;;;;;16.92;74.40;101251.94;4882463;29;45536;-61
2023/05/15 15:28:59;;;;;;;;;16.50;14.25;;;;;16.93;74.45;101261.78;4878841;29;45431;-61
2023/05/15 15:31:27;;;;;;;;;14.50;13.75;;;;;16.96;74.04;101273.28;4876043;29;45529;-61
2023/05/15 15:33:52;;;;;;;;;12.00;12.00;;;;;16.77;73.99;101242.78;4888174;29;45747;-61
2023/05/15 15:36:18;;;;;;;;;10.50;10.50;;;;;16.78;74.27;101256.19;4880156;29;46797;-61
2023/05/15 15:38:49;;;;;;;;;8.75;8.75;;;;;16.84;73.66;101281.97;4881244;29;45466;-61
2023/05/15 15:41:15;;;;;;;;;8.75;8.75;;;;;16.75;73.61;101267.13;4891054;29;45805;-61
2023/05/15 15:43:41;;;;;;;;;7.00;7.00;;;;;16.52;73.59;101238.59;4880077;29;45438;-61
2023/05/15 15:46:06;;;;;;;;;7.75;7.50;;;;;16.49;73.77;101241.47;4879534;29;47892;-61
2023/05/15 15:48:31;;;;;;;;;6.00;6.00;;;;;16.42;73.77;101223.84;4881383;29;45862;-61
2023/05/15 15:50:57;;;;;;;;;5.50;5.50;;;;;16.52;73.29;101248.53;4881035;29;45717;-59
2023/05/15 15:53:22;;;;;;;;;6.00;6.00;;;;;16.57;73.98;101255.44;4879671;29;45384;-58
2023/05/15 15:55:56;;;;;;;;;7.50;6.50;;;;;16.71;73.68;101283.53;4877792;29;46366;-58
2023/05/15 15:58:21;;;;;;;;;9.00;7.25;;;;;16.54;73.95;101255.59;4882200;29;45486;-59
2023/05/15 16:00:46;;;;;;;;;5.00;5.00;;;;;16.59;72.65;101269.72;4885675;29;45637;-59